sensor_id;sensor_type;location;lat;lon;timestamp;P1;durP1;ratioP1;P2;durP2;ratioP2
54197;SDS011;40105;52.366;17.000;2023-07-16T00:01:27;2.57;;;1.30;;
54197;SDS011;40105;52.366;17.000;2023-07-16T00:03:53;3.70;;;1.40;;
54197;SDS011;40105;52.366;17.000;2023-07-16T00:06:18;2.07;;;1.20;;
54197;SDS011;40105;52.366;17.000;2023-07-16T00:08:43;3.77;;;1.60;;
54197;SDS011;40105;52.366;17.000;2023-07-16T00:11:08;5.10;;;1.83;;
54197;SDS011;40105;52.366;17.000;2023-07-16T00:13:33;2.37;;;1.20;;
54197;SDS011;40105;52.366;17.000;2023-07-16T00:15:58;9.43;;;1.67;;
54197;SDS011;40105;52.366;17.000;2023-07-16T00:18:23;3.33;;;1.37;;
54197;SDS011;40105;52.366;17.000;2023-07-16T00:20:49;2.07;;;1.43;;
54197;SDS011;40105;52.366;17.000;2023-07-16T00:23:14;3.03;;;1.70;;
54197;SDS011;40105;52.366;17.000;2023-07-16T00:25:39;3.67;;;1.50;;
54197;SDS011;40105;52.366;17.000;2023-07-16T00:28:04;3.17;;;1.73;;
54197;SDS011;40105;52.366;17.000;2023-07-16T00:30:29;1.93;;;1.50;;
54197;SDS011;40105;52.366;17.000;2023-07-16T00:32:54;4.50;;;1.93;;
54197;SDS011;40105;52.366;17.000;2023-07-16T00:35:20;1.23;;;0.73;;
54197;SDS011;40105;52.366;17.000;2023-07-16T00:37:45;3.13;;;1.70;;
54197;SDS011;40105;52.366;17.000;2023-07-16T00:40:10;2.53;;;1.60;;
54197;SDS011;40105;52.366;17.000;2023-07-16T00:42:35;3.20;;;1.50;;
54197;SDS011;40105;52.366;17.000;2023-07-16T00:45:01;6.13;;;1.70;;
54197;SDS011;40105;52.366;17.000;2023-07-16T00:47:26;2.73;;;1.33;;
54197;SDS011;40105;52.366;17.000;2023-07-16T00:49:51;2.83;;;1.70;;
54197;SDS011;40105;52.366;17.000;2023-07-16T00:52:18;2.05;;;1.33;;
54197;SDS011;40105;52.366;17.000;2023-07-16T00:54:43;2.53;;;1.60;;
54197;SDS011;40105;52.366;17.000;2023-07-16T00:57:08;3.27;;;1.87;;
54197;SDS011;40105;52.366;17.000;2023-07-16T00:59:33;5.23;;;2.00;;
54197;SDS011;40105;52.366;17.000;2023-07-16T01:01:59;4.63;;;1.67;;
54197;SDS011;40105;52.366;17.000;2023-07-16T01:04:24;2.37;;;1.27;;
54197;SDS011;40105;52.366;17.000;2023-07-16T01:06:50;3.13;;;1.60;;
54197;SDS011;40105;52.366;17.000;2023-07-16T01:09:17;4.15;;;1.80;;
54197;SDS011;40105;52.366;17.000;2023-07-16T01:11:43;12.10;;;2.13;;
54197;SDS011;40105;52.366;17.000;2023-07-16T01:14:09;2.65;;;1.70;;
54197;SDS011;40105;52.366;17.000;2023-07-16T01:16:34;2.70;;;1.58;;
54197;SDS011;40105;52.366;17.000;2023-07-16T01:18:59;5.63;;;1.47;;
54197;SDS011;40105;52.366;17.000;2023-07-16T01:21:25;5.83;;;1.60;;
54197;SDS011;40105;52.366;17.000;2023-07-16T01:29:07;5.53;;;1.85;;
54197;SDS011;40105;52.366;17.000;2023-07-16T01:31:34;2.55;;;1.48;;
54197;SDS011;40105;52.366;17.000;2023-07-16T01:33:59;2.80;;;1.90;;
54197;SDS011;40105;52.366;17.000;2023-07-16T01:36:26;2.42;;;1.63;;
54197;SDS011;40105;52.366;17.000;2023-07-16T01:38:53;4.03;;;1.35;;
54197;SDS011;40105;52.366;17.000;2023-07-16T01:41:18;2.73;;;1.60;;
54197;SDS011;40105;52.366;17.000;2023-07-16T01:43:43;1.52;;;1.10;;
54197;SDS011;40105;52.366;17.000;2023-07-16T01:46:09;2.47;;;1.70;;
54197;SDS011;40105;52.366;17.000;2023-07-16T01:48:34;3.43;;;1.90;;
54197;SDS011;40105;52.366;17.000;2023-07-16T01:51:00;3.72;;;1.65;;
54197;SDS011;40105;52.366;17.000;2023-07-16T01:53:25;2.83;;;1.70;;
54197;SDS011;40105;52.366;17.000;2023-07-16T01:55:50;3.90;;;1.83;;
54197;SDS011;40105;52.366;17.000;2023-07-16T01:58:16;6.70;;;2.03;;
54197;SDS011;40105;52.366;17.000;2023-07-16T02:00:41;3.40;;;1.97;;
54197;SDS011;40105;52.366;17.000;2023-07-16T02:03:06;2.40;;;1.67;;
54197;SDS011;40105;52.366;17.000;2023-07-16T02:05:31;4.10;;;1.80;;
54197;SDS011;40105;52.366;17.000;2023-07-16T02:07:56;5.17;;;1.80;;
54197;SDS011;40105;52.366;17.000;2023-07-16T02:10:22;2.30;;;1.67;;
54197;SDS011;40105;52.366;17.000;2023-07-16T02:12:47;3.55;;;1.50;;
54197;SDS011;40105;52.366;17.000;2023-07-16T02:15:12;5.97;;;2.43;;
54197;SDS011;40105;52.366;17.000;2023-07-16T02:17:37;2.37;;;1.40;;
54197;SDS011;40105;52.366;17.000;2023-07-16T02:20:03;4.20;;;2.23;;
54197;SDS011;40105;52.366;17.000;2023-07-16T02:22:31;2.50;;;1.50;;
54197;SDS011;40105;52.366;17.000;2023-07-16T02:24:56;2.78;;;1.75;;
54197;SDS011;40105;52.366;17.000;2023-07-16T02:27:21;3.67;;;2.20;;
54197;SDS011;40105;52.366;17.000;2023-07-16T02:29:47;6.00;;;1.70;;
54197;SDS011;40105;52.366;17.000;2023-07-16T02:32:12;3.37;;;1.73;;
54197;SDS011;40105;52.366;17.000;2023-07-16T02:34:37;3.92;;;2.17;;
54197;SDS011;40105;52.366;17.000;2023-07-16T02:37:03;6.03;;;2.27;;
54197;SDS011;40105;52.366;17.000;2023-07-16T02:39:28;1.57;;;1.20;;
54197;SDS011;40105;52.366;17.000;2023-07-16T02:41:53;7.20;;;2.40;;
54197;SDS011;40105;52.366;17.000;2023-07-16T02:44:18;2.87;;;1.60;;
54197;SDS011;40105;52.366;17.000;2023-07-16T02:46:43;5.73;;;1.70;;
54197;SDS011;40105;52.366;17.000;2023-07-16T02:49:09;5.03;;;2.40;;
54197;SDS011;40105;52.366;17.000;2023-07-16T02:51:34;5.57;;;1.80;;
54197;SDS011;40105;52.366;17.000;2023-07-16T02:53:59;6.17;;;2.07;;
54197;SDS011;40105;52.366;17.000;2023-07-16T02:56:24;3.00;;;1.67;;
54197;SDS011;40105;52.366;17.000;2023-07-16T02:58:49;3.63;;;2.33;;
54197;SDS011;40105;52.366;17.000;2023-07-16T03:01:15;4.43;;;2.50;;
54197;SDS011;40105;52.366;17.000;2023-07-16T03:03:40;4.77;;;2.63;;
54197;SDS011;40105;52.366;17.000;2023-07-16T03:06:05;5.13;;;2.50;;
54197;SDS011;40105;52.366;17.000;2023-07-16T03:08:30;2.77;;;1.83;;
54197;SDS011;40105;52.366;17.000;2023-07-16T03:10:56;3.00;;;1.65;;
54197;SDS011;40105;52.366;17.000;2023-07-16T03:13:22;4.90;;;2.22;;
54197;SDS011;40105;52.366;17.000;2023-07-16T03:15:47;7.43;;;2.30;;
54197;SDS011;40105;52.366;17.000;2023-07-16T03:18:12;3.43;;;1.90;;
54197;SDS011;40105;52.366;17.000;2023-07-16T03:20:37;2.70;;;1.77;;
54197;SDS011;40105;52.366;17.000;2023-07-16T03:23:03;2.83;;;1.73;;
54197;SDS011;40105;52.366;17.000;2023-07-16T03:25:28;2.57;;;1.70;;
54197;SDS011;40105;52.366;17.000;2023-07-16T03:27:53;2.53;;;1.70;;
54197;SDS011;40105;52.366;17.000;2023-07-16T03:30:18;3.23;;;1.77;;
54197;SDS011;40105;52.366;17.000;2023-07-16T03:32:43;2.63;;;1.73;;
54197;SDS011;40105;52.366;17.000;2023-07-16T03:35:09;2.30;;;1.37;;
54197;SDS011;40105;52.366;17.000;2023-07-16T03:37:34;4.80;;;2.20;;
54197;SDS011;40105;52.366;17.000;2023-07-16T03:40:11;3.73;;;1.73;;
54197;SDS011;40105;52.366;17.000;2023-07-16T03:42:37;3.22;;;1.70;;
54197;SDS011;40105;52.366;17.000;2023-07-16T03:45:02;3.93;;;2.07;;
54197;SDS011;40105;52.366;17.000;2023-07-16T03:47:27;2.67;;;1.90;;
54197;SDS011;40105;52.366;17.000;2023-07-16T03:49:52;2.58;;;1.85;;
54197;SDS011;40105;52.366;17.000;2023-07-16T03:52:17;5.20;;;2.00;;
54197;SDS011;40105;52.366;17.000;2023-07-16T03:54:43;3.53;;;1.97;;
54197;SDS011;40105;52.366;17.000;2023-07-16T03:57:08;4.27;;;1.50;;
54197;SDS011;40105;52.366;17.000;2023-07-16T03:59:33;3.73;;;2.20;;
54197;SDS011;40105;52.366;17.000;2023-07-16T04:01:58;4.07;;;1.73;;
54197;SDS011;40105;52.366;17.000;2023-07-16T04:04:23;3.73;;;1.90;;
54197;SDS011;40105;52.366;17.000;2023-07-16T04:06:48;3.17;;;1.40;;
54197;SDS011;40105;52.366;17.000;2023-07-16T04:09:13;6.40;;;3.07;;
54197;SDS011;40105;52.366;17.000;2023-07-16T04:11:39;3.00;;;2.00;;
54197;SDS011;40105;52.366;17.000;2023-07-16T04:14:04;3.17;;;1.80;;
54197;SDS011;40105;52.366;17.000;2023-07-16T04:16:29;3.67;;;1.83;;
54197;SDS011;40105;52.366;17.000;2023-07-16T04:18:54;3.00;;;2.00;;
54197;SDS011;40105;52.366;17.000;2023-07-16T04:21:19;2.57;;;1.57;;
54197;SDS011;40105;52.366;17.000;2023-07-16T04:23:44;4.90;;;2.47;;
54197;SDS011;40105;52.366;17.000;2023-07-16T04:26:10;3.10;;;1.60;;
54197;SDS011;40105;52.366;17.000;2023-07-16T04:28:35;3.23;;;1.83;;
54197;SDS011;40105;52.366;17.000;2023-07-16T04:31:00;3.37;;;1.77;;
54197;SDS011;40105;52.366;17.000;2023-07-16T04:33:25;2.88;;;1.90;;
54197;SDS011;40105;52.366;17.000;2023-07-16T04:35:50;2.03;;;1.30;;
54197;SDS011;40105;52.366;17.000;2023-07-16T04:38:16;3.87;;;2.03;;
54197;SDS011;40105;52.366;17.000;2023-07-16T04:40:41;7.40;;;1.48;;
54197;SDS011;40105;52.366;17.000;2023-07-16T04:43:07;4.65;;;1.98;;
54197;SDS011;40105;52.366;17.000;2023-07-16T04:45:32;3.13;;;1.97;;
54197;SDS011;40105;52.366;17.000;2023-07-16T04:47:57;4.60;;;2.37;;
54197;SDS011;40105;52.366;17.000;2023-07-16T04:50:24;3.40;;;1.40;;
54197;SDS011;40105;52.366;17.000;2023-07-16T04:52:49;4.57;;;1.97;;
54197;SDS011;40105;52.366;17.000;2023-07-16T04:55:14;2.23;;;1.30;;
54197;SDS011;40105;52.366;17.000;2023-07-16T04:57:39;5.00;;;1.87;;
54197;SDS011;40105;52.366;17.000;2023-07-16T05:00:05;4.97;;;1.20;;
54197;SDS011;40105;52.366;17.000;2023-07-16T05:02:31;3.88;;;1.70;;
54197;SDS011;40105;52.366;17.000;2023-07-16T05:04:56;4.40;;;1.50;;
54197;SDS011;40105;52.366;17.000;2023-07-16T05:07:21;4.00;;;1.77;;
54197;SDS011;40105;52.366;17.000;2023-07-16T05:09:46;2.53;;;1.57;;
54197;SDS011;40105;52.366;17.000;2023-07-16T05:12:11;3.90;;;1.37;;
54197;SDS011;40105;52.366;17.000;2023-07-16T05:14:47;7.93;;;1.93;;
54197;SDS011;40105;52.366;17.000;2023-07-16T05:17:12;3.63;;;1.65;;
54197;SDS011;40105;52.366;17.000;2023-07-16T05:19:38;1.70;;;1.35;;
54197;SDS011;40105;52.366;17.000;2023-07-16T05:22:03;3.13;;;1.40;;
54197;SDS011;40105;52.366;17.000;2023-07-16T05:24:28;2.17;;;1.20;;
54197;SDS011;40105;52.366;17.000;2023-07-16T05:26:53;2.83;;;1.53;;
54197;SDS011;40105;52.366;17.000;2023-07-16T05:29:19;2.45;;;1.40;;
54197;SDS011;40105;52.366;17.000;2023-07-16T05:31:44;2.30;;;1.37;;
54197;SDS011;40105;52.366;17.000;2023-07-16T05:34:11;3.80;;;1.00;;
54197;SDS011;40105;52.366;17.000;2023-07-16T05:36:36;2.17;;;1.17;;
54197;SDS011;40105;52.366;17.000;2023-07-16T05:39:01;1.10;;;0.90;;
54197;SDS011;40105;52.366;17.000;2023-07-16T05:41:26;1.97;;;1.10;;
54197;SDS011;40105;52.366;17.000;2023-07-16T05:43:51;1.20;;;1.00;;
54197;SDS011;40105;52.366;17.000;2023-07-16T05:46:17;4.13;;;1.33;;
54197;SDS011;40105;52.366;17.000;2023-07-16T05:48:42;1.87;;;0.80;;
54197;SDS011;40105;52.366;17.000;2023-07-16T05:51:07;1.73;;;1.08;;
54197;SDS011;40105;52.366;17.000;2023-07-16T05:53:32;1.13;;;0.70;;
54197;SDS011;40105;52.366;17.000;2023-07-16T05:55:57;1.10;;;0.80;;
54197;SDS011;40105;52.366;17.000;2023-07-16T05:58:23;1.90;;;1.10;;
54197;SDS011;40105;52.366;17.000;2023-07-16T06:00:48;2.00;;;1.40;;
54197;SDS011;40105;52.366;17.000;2023-07-16T06:03:13;1.60;;;0.60;;
54197;SDS011;40105;52.366;17.000;2023-07-16T06:05:38;1.57;;;0.93;;
54197;SDS011;40105;52.366;17.000;2023-07-16T06:08:03;1.27;;;0.90;;
54197;SDS011;40105;52.366;17.000;2023-07-16T06:10:29;0.87;;;0.67;;
54197;SDS011;40105;52.366;17.000;2023-07-16T06:12:54;1.17;;;0.80;;
54197;SDS011;40105;52.366;17.000;2023-07-16T06:15:19;2.00;;;1.10;;
54197;SDS011;40105;52.366;17.000;2023-07-16T06:17:44;1.10;;;0.93;;
54197;SDS011;40105;52.366;17.000;2023-07-16T06:20:09;2.30;;;1.10;;
54197;SDS011;40105;52.366;17.000;2023-07-16T06:22:36;2.22;;;1.00;;
54197;SDS011;40105;52.366;17.000;2023-07-16T06:25:02;2.10;;;0.95;;
54197;SDS011;40105;52.366;17.000;2023-07-16T06:27:27;1.07;;;0.70;;
54197;SDS011;40105;52.366;17.000;2023-07-16T06:29:52;1.30;;;0.87;;
54197;SDS011;40105;52.366;17.000;2023-07-16T06:32:17;0.87;;;0.70;;
54197;SDS011;40105;52.366;17.000;2023-07-16T06:34:42;4.05;;;1.10;;
54197;SDS011;40105;52.366;17.000;2023-07-16T06:37:08;1.73;;;1.00;;
54197;SDS011;40105;52.366;17.000;2023-07-16T06:39:33;1.63;;;0.80;;
54197;SDS011;40105;52.366;17.000;2023-07-16T06:41:58;0.60;;;0.60;;
54197;SDS011;40105;52.366;17.000;2023-07-16T06:44:23;2.37;;;0.90;;
54197;SDS011;40105;52.366;17.000;2023-07-16T06:46:49;1.70;;;0.90;;
54197;SDS011;40105;52.366;17.000;2023-07-16T06:49:14;1.20;;;0.70;;
54197;SDS011;40105;52.366;17.000;2023-07-16T06:51:39;1.57;;;0.77;;
54197;SDS011;40105;52.366;17.000;2023-07-16T06:54:04;5.20;;;0.77;;
54197;SDS011;40105;52.366;17.000;2023-07-16T06:56:29;1.08;;;0.73;;
54197;SDS011;40105;52.366;17.000;2023-07-16T06:58:55;3.83;;;0.77;;
54197;SDS011;40105;52.366;17.000;2023-07-16T07:01:20;2.83;;;0.55;;
54197;SDS011;40105;52.366;17.000;2023-07-16T07:03:46;2.20;;;0.60;;
54197;SDS011;40105;52.366;17.000;2023-07-16T07:06:11;0.50;;;0.43;;
54197;SDS011;40105;52.366;17.000;2023-07-16T07:08:36;6.43;;;0.80;;
54197;SDS011;40105;52.366;17.000;2023-07-16T07:11:01;1.63;;;0.50;;
54197;SDS011;40105;52.366;17.000;2023-07-16T07:13:27;0.63;;;0.53;;
54197;SDS011;40105;52.366;17.000;2023-07-16T07:15:52;0.55;;;0.50;;
54197;SDS011;40105;52.366;17.000;2023-07-16T07:18:17;1.03;;;0.50;;
54197;SDS011;40105;52.366;17.000;2023-07-16T07:20:42;1.53;;;0.73;;
54197;SDS011;40105;52.366;17.000;2023-07-16T07:23:08;0.63;;;0.40;;
54197;SDS011;40105;52.366;17.000;2023-07-16T07:25:33;0.80;;;0.47;;
54197;SDS011;40105;52.366;17.000;2023-07-16T07:27:59;1.73;;;1.10;;
54197;SDS011;40105;52.366;17.000;2023-07-16T07:30:25;1.55;;;0.75;;
54197;SDS011;40105;52.366;17.000;2023-07-16T07:32:50;2.00;;;0.63;;
54197;SDS011;40105;52.366;17.000;2023-07-16T07:35:15;1.83;;;1.07;;
54197;SDS011;40105;52.366;17.000;2023-07-16T07:37:41;2.37;;;0.93;;
54197;SDS011;40105;52.366;17.000;2023-07-16T07:40:06;1.00;;;0.60;;
54197;SDS011;40105;52.366;17.000;2023-07-16T07:42:32;0.52;;;0.50;;
54197;SDS011;40105;52.366;17.000;2023-07-16T07:44:57;1.93;;;0.80;;
54197;SDS011;40105;52.366;17.000;2023-07-16T07:47:23;1.80;;;0.60;;
54197;SDS011;40105;52.366;17.000;2023-07-16T07:49:48;1.53;;;0.70;;
54197;SDS011;40105;52.366;17.000;2023-07-16T07:52:13;0.63;;;0.60;;
54197;SDS011;40105;52.366;17.000;2023-07-16T07:54:38;1.07;;;0.70;;
54197;SDS011;40105;52.366;17.000;2023-07-16T07:57:04;0.97;;;0.50;;
54197;SDS011;40105;52.366;17.000;2023-07-16T07:59:29;2.72;;;1.27;;
54197;SDS011;40105;52.366;17.000;2023-07-16T08:01:55;3.22;;;1.08;;
54197;SDS011;40105;52.366;17.000;2023-07-16T08:04:20;1.73;;;1.07;;
54197;SDS011;40105;52.366;17.000;2023-07-16T08:06:45;1.10;;;0.60;;
54197;SDS011;40105;52.366;17.000;2023-07-16T08:09:10;2.13;;;0.80;;
54197;SDS011;40105;52.366;17.000;2023-07-16T08:11:36;1.55;;;0.63;;
54197;SDS011;40105;52.366;17.000;2023-07-16T08:14:01;0.87;;;0.63;;
54197;SDS011;40105;52.366;17.000;2023-07-16T08:16:26;1.33;;;0.83;;
54197;SDS011;40105;52.366;17.000;2023-07-16T08:18:51;1.13;;;0.80;;
54197;SDS011;40105;52.366;17.000;2023-07-16T08:21:16;1.27;;;0.80;;
54197;SDS011;40105;52.366;17.000;2023-07-16T08:23:45;0.60;;;0.55;;
54197;SDS011;40105;52.366;17.000;2023-07-16T08:26:10;1.17;;;0.60;;
54197;SDS011;40105;52.366;17.000;2023-07-16T08:28:37;2.10;;;0.68;;
54197;SDS011;40105;52.366;17.000;2023-07-16T08:31:02;0.97;;;0.77;;
54197;SDS011;40105;52.366;17.000;2023-07-16T08:33:28;0.70;;;0.40;;
54197;SDS011;40105;52.366;17.000;2023-07-16T08:35:53;1.00;;;0.70;;
54197;SDS011;40105;52.366;17.000;2023-07-16T08:38:18;0.87;;;0.50;;
54197;SDS011;40105;52.366;17.000;2023-07-16T08:40:43;1.47;;;0.83;;
54197;SDS011;40105;52.366;17.000;2023-07-16T08:43:11;1.05;;;0.65;;
54197;SDS011;40105;52.366;17.000;2023-07-16T08:45:40;0.95;;;0.70;;
54197;SDS011;40105;52.366;17.000;2023-07-16T08:48:07;1.15;;;0.70;;
54197;SDS011;40105;52.366;17.000;2023-07-16T08:50:34;0.82;;;0.60;;
54197;SDS011;40105;52.366;17.000;2023-07-16T08:52:59;1.00;;;0.80;;
54197;SDS011;40105;52.366;17.000;2023-07-16T08:55:25;0.90;;;0.70;;
54197;SDS011;40105;52.366;17.000;2023-07-16T08:57:50;1.67;;;0.97;;
54197;SDS011;40105;52.366;17.000;2023-07-16T09:00:16;4.70;;;1.00;;
54197;SDS011;40105;52.366;17.000;2023-07-16T09:02:41;0.80;;;0.57;;
54197;SDS011;40105;52.366;17.000;2023-07-16T09:05:07;0.60;;;0.57;;
54197;SDS011;40105;52.366;17.000;2023-07-16T09:07:33;0.88;;;0.77;;
54197;SDS011;40105;52.366;17.000;2023-07-16T09:09:59;2.67;;;1.00;;
54197;SDS011;40105;52.366;17.000;2023-07-16T09:12:24;1.00;;;0.80;;
54197;SDS011;40105;52.366;17.000;2023-07-16T09:14:50;1.30;;;0.90;;
54197;SDS011;40105;52.366;17.000;2023-07-16T09:17:19;2.37;;;1.00;;
54197;SDS011;40105;52.366;17.000;2023-07-16T09:19:45;0.93;;;0.75;;
54197;SDS011;40105;52.366;17.000;2023-07-16T09:22:11;1.58;;;0.82;;
54197;SDS011;40105;52.366;17.000;2023-07-16T09:24:36;2.07;;;1.10;;
54197;SDS011;40105;52.366;17.000;2023-07-16T09:27:01;2.67;;;1.00;;
54197;SDS011;40105;52.366;17.000;2023-07-16T09:29:26;2.25;;;1.45;;
54197;SDS011;40105;52.366;17.000;2023-07-16T09:32:01;2.33;;;0.90;;
54197;SDS011;40105;52.366;17.000;2023-07-16T09:34:30;0.75;;;0.70;;
54197;SDS011;40105;52.366;17.000;2023-07-16T09:36:56;1.15;;;0.85;;
54197;SDS011;40105;52.366;17.000;2023-07-16T09:39:21;1.88;;;1.02;;
54197;SDS011;40105;52.366;17.000;2023-07-16T09:41:47;1.52;;;0.93;;
54197;SDS011;40105;52.366;17.000;2023-07-16T09:44:13;1.90;;;1.05;;
54197;SDS011;40105;52.366;17.000;2023-07-16T09:46:38;0.80;;;0.60;;
54197;SDS011;40105;52.366;17.000;2023-07-16T09:49:04;0.77;;;0.70;;
54197;SDS011;40105;52.366;17.000;2023-07-16T09:51:29;0.90;;;0.70;;
54197;SDS011;40105;52.366;17.000;2023-07-16T09:53:55;1.10;;;0.80;;
54197;SDS011;40105;52.366;17.000;2023-07-16T09:56:20;2.08;;;0.90;;
54197;SDS011;40105;52.366;17.000;2023-07-16T09:58:45;1.30;;;0.80;;
54197;SDS011;40105;52.366;17.000;2023-07-16T10:01:11;0.88;;;0.63;;
54197;SDS011;40105;52.366;17.000;2023-07-16T10:03:37;1.63;;;0.80;;
54197;SDS011;40105;52.366;17.000;2023-07-16T10:06:12;2.47;;;1.00;;
54197;SDS011;40105;52.366;17.000;2023-07-16T10:08:38;0.97;;;0.70;;
54197;SDS011;40105;52.366;17.000;2023-07-16T10:11:03;1.10;;;0.80;;
54197;SDS011;40105;52.366;17.000;2023-07-16T10:13:28;4.20;;;0.98;;
54197;SDS011;40105;52.366;17.000;2023-07-16T10:15:56;1.67;;;0.50;;
54197;SDS011;40105;52.366;17.000;2023-07-16T10:18:25;3.13;;;0.80;;
54197;SDS011;40105;52.366;17.000;2023-07-16T10:20:52;0.80;;;0.43;;
54197;SDS011;40105;52.366;17.000;2023-07-16T10:23:17;2.00;;;0.90;;
54197;SDS011;40105;52.366;17.000;2023-07-16T10:25:58;1.80;;;0.90;;
54197;SDS011;40105;52.366;17.000;2023-07-16T10:28:24;0.93;;;0.55;;
54197;SDS011;40105;52.366;17.000;2023-07-16T10:30:49;2.30;;;0.80;;
54197;SDS011;40105;52.366;17.000;2023-07-16T10:33:15;1.08;;;0.73;;
54197;SDS011;40105;52.366;17.000;2023-07-16T10:35:44;5.00;;;0.90;;
54197;SDS011;40105;52.366;17.000;2023-07-16T10:38:10;1.63;;;0.88;;
54197;SDS011;40105;52.366;17.000;2023-07-16T10:40:39;1.52;;;0.80;;
54197;SDS011;40105;52.366;17.000;2023-07-16T10:43:05;1.50;;;0.70;;
54197;SDS011;40105;52.366;17.000;2023-07-16T10:45:30;1.02;;;0.80;;
54197;SDS011;40105;52.366;17.000;2023-07-16T10:47:56;1.67;;;0.90;;
54197;SDS011;40105;52.366;17.000;2023-07-16T10:50:21;3.70;;;1.07;;
54197;SDS011;40105;52.366;17.000;2023-07-16T10:52:50;0.63;;;0.45;;
54197;SDS011;40105;52.366;17.000;2023-07-16T10:55:15;1.92;;;0.80;;
54197;SDS011;40105;52.366;17.000;2023-07-16T10:57:40;0.83;;;0.70;;
54197;SDS011;40105;52.366;17.000;2023-07-16T11:00:06;0.90;;;0.70;;
54197;SDS011;40105;52.366;17.000;2023-07-16T11:02:38;0.87;;;0.50;;
54197;SDS011;40105;52.366;17.000;2023-07-16T11:05:05;0.95;;;0.60;;
54197;SDS011;40105;52.366;17.000;2023-07-16T11:07:30;0.50;;;0.50;;
54197;SDS011;40105;52.366;17.000;2023-07-16T11:09:55;1.63;;;0.83;;
54197;SDS011;40105;52.366;17.000;2023-07-16T11:12:21;1.13;;;0.60;;
54197;SDS011;40105;52.366;17.000;2023-07-16T11:14:51;1.17;;;0.70;;
54197;SDS011;40105;52.366;17.000;2023-07-16T11:17:17;1.65;;;0.98;;
54197;SDS011;40105;52.366;17.000;2023-07-16T11:19:49;0.73;;;0.60;;
54197;SDS011;40105;52.366;17.000;2023-07-16T11:22:15;0.98;;;0.68;;
54197;SDS011;40105;52.366;17.000;2023-07-16T11:24:47;1.25;;;0.60;;
54197;SDS011;40105;52.366;17.000;2023-07-16T11:27:13;0.50;;;0.50;;
54197;SDS011;40105;52.366;17.000;2023-07-16T11:29:39;0.93;;;0.65;;
54197;SDS011;40105;52.366;17.000;2023-07-16T11:32:04;1.43;;;0.70;;
54197;SDS011;40105;52.366;17.000;2023-07-16T11:34:30;1.00;;;0.68;;
54197;SDS011;40105;52.366;17.000;2023-07-16T11:36:55;1.43;;;0.60;;
54197;SDS011;40105;52.366;17.000;2023-07-16T11:39:20;0.90;;;0.67;;
54197;SDS011;40105;52.366;17.000;2023-07-16T11:41:57;0.97;;;0.50;;
54197;SDS011;40105;52.366;17.000;2023-07-16T11:44:23;1.25;;;0.80;;
54197;SDS011;40105;52.366;17.000;2023-07-16T11:46:48;1.23;;;0.50;;
54197;SDS011;40105;52.366;17.000;2023-07-16T11:49:13;1.40;;;0.80;;
54197;SDS011;40105;52.366;17.000;2023-07-16T11:51:38;1.23;;;1.00;;
54197;SDS011;40105;52.366;17.000;2023-07-16T11:54:03;0.63;;;0.43;;
54197;SDS011;40105;52.366;17.000;2023-07-16T11:56:28;0.83;;;0.60;;
54197;SDS011;40105;52.366;17.000;2023-07-16T11:58:54;0.63;;;0.53;;
54197;SDS011;40105;52.366;17.000;2023-07-16T12:01:19;1.30;;;0.90;;
54197;SDS011;40105;52.366;17.000;2023-07-16T12:03:44;1.00;;;0.63;;
54197;SDS011;40105;52.366;17.000;2023-07-16T12:06:09;0.97;;;0.50;;
54197;SDS011;40105;52.366;17.000;2023-07-16T12:08:34;1.43;;;0.80;;
54197;SDS011;40105;52.366;17.000;2023-07-16T12:10:59;1.80;;;0.80;;
54197;SDS011;40105;52.366;17.000;2023-07-16T12:13:25;1.37;;;0.60;;
54197;SDS011;40105;52.366;17.000;2023-07-16T12:15:50;3.63;;;0.73;;
54197;SDS011;40105;52.366;17.000;2023-07-16T12:18:15;1.67;;;0.93;;
54197;SDS011;40105;52.366;17.000;2023-07-16T12:20:40;1.65;;;0.60;;
54197;SDS011;40105;52.366;17.000;2023-07-16T12:23:05;0.80;;;0.60;;
54197;SDS011;40105;52.366;17.000;2023-07-16T12:25:30;0.90;;;0.67;;
54197;SDS011;40105;52.366;17.000;2023-07-16T12:27:56;0.83;;;0.63;;
54197;SDS011;40105;52.366;17.000;2023-07-16T12:30:22;1.27;;;0.68;;
54197;SDS011;40105;52.366;17.000;2023-07-16T12:32:48;1.23;;;0.77;;
54197;SDS011;40105;52.366;17.000;2023-07-16T12:35:13;2.67;;;1.03;;
54197;SDS011;40105;52.366;17.000;2023-07-16T12:37:39;1.35;;;0.80;;
54197;SDS011;40105;52.366;17.000;2023-07-16T12:40:04;0.80;;;0.70;;
54197;SDS011;40105;52.366;17.000;2023-07-16T12:42:29;1.25;;;0.70;;
54197;SDS011;40105;52.366;17.000;2023-07-16T12:44:54;0.87;;;0.67;;
54197;SDS011;40105;52.366;17.000;2023-07-16T12:47:20;0.73;;;0.73;;
54197;SDS011;40105;52.366;17.000;2023-07-16T12:49:45;1.13;;;0.60;;
54197;SDS011;40105;52.366;17.000;2023-07-16T12:52:10;1.43;;;0.90;;
54197;SDS011;40105;52.366;17.000;2023-07-16T12:54:35;1.13;;;0.90;;
54197;SDS011;40105;52.366;17.000;2023-07-16T12:57:00;1.80;;;0.80;;
54197;SDS011;40105;52.366;17.000;2023-07-16T12:59:26;0.83;;;0.73;;
54197;SDS011;40105;52.366;17.000;2023-07-16T13:01:51;1.23;;;0.90;;
54197;SDS011;40105;52.366;17.000;2023-07-16T13:04:16;1.60;;;0.80;;
54197;SDS011;40105;52.366;17.000;2023-07-16T13:06:41;1.50;;;1.00;;
54197;SDS011;40105;52.366;17.000;2023-07-16T13:09:07;1.08;;;0.77;;
54197;SDS011;40105;52.366;17.000;2023-07-16T13:11:32;1.13;;;0.70;;
54197;SDS011;40105;52.366;17.000;2023-07-16T13:13:57;1.10;;;0.70;;
54197;SDS011;40105;52.366;17.000;2023-07-16T13:16:22;1.30;;;0.73;;
54197;SDS011;40105;52.366;17.000;2023-07-16T13:18:47;1.07;;;0.77;;
54197;SDS011;40105;52.366;17.000;2023-07-16T13:21:13;1.10;;;0.60;;
54197;SDS011;40105;52.366;17.000;2023-07-16T13:23:38;0.40;;;0.40;;
54197;SDS011;40105;52.366;17.000;2023-07-16T13:26:03;1.00;;;0.77;;
54197;SDS011;40105;52.366;17.000;2023-07-16T13:28:28;1.03;;;0.90;;
54197;SDS011;40105;52.366;17.000;2023-07-16T13:30:53;1.73;;;1.00;;
54197;SDS011;40105;52.366;17.000;2023-07-16T13:33:18;2.00;;;1.00;;
54197;SDS011;40105;52.366;17.000;2023-07-16T13:35:44;1.93;;;1.30;;
54197;SDS011;40105;52.366;17.000;2023-07-16T13:38:09;2.00;;;0.87;;
54197;SDS011;40105;52.366;17.000;2023-07-16T13:40:34;1.17;;;0.67;;
54197;SDS011;40105;52.366;17.000;2023-07-16T13:42:59;2.23;;;1.10;;
54197;SDS011;40105;52.366;17.000;2023-07-16T13:45:24;1.97;;;1.00;;
54197;SDS011;40105;52.366;17.000;2023-07-16T13:47:49;0.73;;;0.60;;
54197;SDS011;40105;52.366;17.000;2023-07-16T13:50:19;0.93;;;0.55;;
54197;SDS011;40105;52.366;17.000;2023-07-16T13:52:44;2.03;;;1.00;;
54197;SDS011;40105;52.366;17.000;2023-07-16T13:55:09;1.43;;;0.80;;
54197;SDS011;40105;52.366;17.000;2023-07-16T13:57:34;2.47;;;1.10;;
54197;SDS011;40105;52.366;17.000;2023-07-16T13:59:59;1.20;;;0.90;;
54197;SDS011;40105;52.366;17.000;2023-07-16T14:02:25;1.33;;;0.98;;
54197;SDS011;40105;52.366;17.000;2023-07-16T14:04:50;1.27;;;0.80;;
54197;SDS011;40105;52.366;17.000;2023-07-16T14:07:15;1.90;;;1.00;;
54197;SDS011;40105;52.366;17.000;2023-07-16T14:09:41;3.83;;;0.80;;
54197;SDS011;40105;52.366;17.000;2023-07-16T14:12:06;3.23;;;0.97;;
54197;SDS011;40105;52.366;17.000;2023-07-16T14:14:31;1.30;;;0.88;;
54197;SDS011;40105;52.366;17.000;2023-07-16T14:16:56;1.83;;;1.10;;
54197;SDS011;40105;52.366;17.000;2023-07-16T14:19:21;5.67;;;0.90;;
54197;SDS011;40105;52.366;17.000;2023-07-16T14:21:47;1.27;;;0.90;;
54197;SDS011;40105;52.366;17.000;2023-07-16T14:24:12;1.83;;;1.00;;
54197;SDS011;40105;52.366;17.000;2023-07-16T14:26:37;1.73;;;1.20;;
54197;SDS011;40105;52.366;17.000;2023-07-16T14:29:02;1.00;;;0.70;;